Time;durP1;ratioP1;P1;durP2;ratioP2;P2;SDS_P1;SDS_P2;PMS_P1;PMS_P2;Temp;Humidity;BMP_temperature;BMP_pressure;BME280_temperature;BME280_humidity;BME280_pressure;Samples;Min_cycle;Max_cycle;Signal;HPM_P1;HPM_P2
2023/06/24 00:02:01;;;;;;;13.07;11.48;;;17.70;56.40;;;;;;5064572;28;20436;-77
2023/06/24 00:04:27;;;;;;;17.13;12.15;;;17.80;55.70;;;;;;5063613;28;20432;-79
2023/06/24 00:06:52;;;;;;;13.50;11.55;;;17.80;55.10;;;;;;5065082;28;20393;-78
2023/06/24 00:09:18;;;;;;;14.90;11.50;;;17.80;55.90;;;;;;5042861;28;20381;-77
2023/06/24 00:11:47;;;;;;;14.63;11.38;;;17.70;57.20;;;;;;5043363;28;20386;-76
2023/06/24 00:14:15;;;;;;;13.45;11.80;;;17.60;57.10;;;;;;5064427;28;20400;-77
2023/06/24 00:16:41;;;;;;;14.43;11.90;;;17.60;57.50;;;;;;5062969;28;20397;-77
2023/06/24 00:19:07;;;;;;;17.58;12.15;;;17.50;58.20;;;;;;5043185;28;20405;-76
2023/06/24 00:21:32;;;;;;;14.03;11.10;;;17.30;58.70;;;;;;5060590;28;20487;-77
2023/06/24 00:24:04;;;;;;;14.37;11.37;;;17.30;59.30;;;;;;5058197;28;20386;-77
2023/06/24 00:26:30;;;;;;;14.68;11.60;;;17.30;58.50;;;;;;5041208;28;20389;-77
2023/06/24 00:28:55;;;;;;;15.70;11.90;;;17.30;58.70;;;;;;5057290;28;20390;-78
2023/06/24 00:31:21;;;;;;;21.30;12.50;;;17.50;56.90;;;;;;5056880;28;20424;-78
2023/06/24 00:33:47;;;;;;;20.53;13.30;;;17.40;57.60;;;;;;5059079;28;20382;-77
2023/06/24 00:36:13;;;;;;;17.58;12.80;;;17.30;58.90;;;;;;5059473;28;20399;-78
2023/06/24 00:38:39;;;;;;;15.60;12.77;;;17.30;59.30;;;;;;5039629;28;20887;-77
2023/06/24 00:41:06;;;;;;;22.35;16.17;;;17.20;59.90;;;;;;5058875;28;20397;-77
2023/06/24 00:43:31;;;;;;;20.13;14.00;;;17.30;60.80;;;;;;5056751;28;20390;-76
2023/06/24 00:45:58;;;;;;;16.07;13.37;;;17.20;60.90;;;;;;5060611;28;20378;-77
2023/06/24 00:48:24;;;;;;;16.13;12.73;;;17.20;61.70;;;;;;5045606;28;20396;-77
2023/06/24 00:50:50;;;;;;;20.80;13.80;;;17.20;62.10;;;;;;5058089;28;20377;-78
2023/06/24 00:53:17;;;;;;;19.90;13.52;;;17.10;61.80;;;;;;5038193;28;20397;-78
2023/06/24 00:55:45;;;;;;;18.52;13.50;;;17.10;61.60;;;;;;5057835;28;20388;-77
2023/06/24 00:58:15;;;;;;;14.90;12.65;;;17.20;59.90;;;;;;5057839;28;20424;-76
2023/06/24 01:00:42;;;;;;;22.73;14.20;;;17.10;59.40;;;;;;5054877;28;20384;-77
2023/06/24 01:03:10;;;;;;;19.67;13.43;;;17.10;59.40;;;;;;5056663;28;20432;-78
2023/06/24 01:05:36;;;;;;;20.13;13.93;;;17.10;59.40;;;;;;5055931;28;20418;-77
2023/06/24 01:08:02;;;;;;;19.80;13.82;;;17.10;59.10;;;;;;5040391;28;20389;-77
2023/06/24 01:10:28;;;;;;;20.42;13.32;;;17.10;59.60;;;;;;5064420;28;20425;-77
2023/06/24 01:12:53;;;;;;;17.67;13.75;;;17.00;60.30;;;;;;5064295;28;20396;-76
2023/06/24 01:15:21;;;;;;;23.55;14.65;;;17.00;60.60;;;;;;5048442;28;20394;-76
2023/06/24 01:18:11;;;;;;;22.10;13.20;;;16.90;63.30;;;;;;5053003;28;20412;-77
2023/06/24 01:20:54;;;;;;;20.63;14.00;;;17.10;61.80;;;;;;5053876;28;20493;-76
2023/06/24 01:23:34;;;;;;;18.52;14.50;;;17.10;61.50;;;;;;5050979;28;20500;-78
2023/06/24 01:26:15;;;;;;;21.13;14.60;;;17.00;62.40;;;;;;5033032;28;20389;-77
2023/06/24 01:28:56;;;;;;;21.10;15.10;;;17.00;63.90;;;;;;5053721;28;20754;-77
2023/06/24 01:31:32;;;;;;;23.10;14.67;;;16.90;64.50;;;;;;5053914;28;20437;-76
2023/06/24 01:34:25;;;;;;;18.58;13.30;;;16.90;65.80;;;;;;5035711;28;20893;-77
2023/06/24 01:37:17;;;;;;;18.98;13.85;;;17.00;64.50;;;;;;5056786;28;20389;-76
2023/06/24 01:39:50;;;;;;;20.38;13.77;;;17.20;62.10;;;;;;5053396;28;20389;-76
2023/06/24 01:42:17;;;;;;;17.80;13.23;;;17.20;61.90;;;;;;5053341;28;20762;-77
2023/06/24 01:44:47;;;;;;;19.53;14.50;;;17.20;63.20;;;;;;5055139;28;20385;-77
2023/06/24 01:47:16;;;;;;;22.15;15.27;;;17.10;64.10;;;;;;5054646;28;20396;-77
2023/06/24 01:49:42;;;;;;;21.00;14.13;;;17.10;64.30;;;;;;5052534;28;20438;-77
2023/06/24 01:52:10;;;;;;;21.38;15.25;;;17.10;63.90;;;;;;5054101;28;20420;-77
2023/06/24 01:54:38;;;;;;;22.42;14.43;;;17.00;63.90;;;;;;5051599;28;20389;-77
2023/06/24 01:57:06;;;;;;;19.38;14.70;;;17.00;63.70;;;;;;5032930;28;20487;-77
2023/06/24 01:59:35;;;;;;;23.88;14.63;;;17.10;63.70;;;;;;5033138;28;20419;-75
2023/06/24 02:02:02;;;;;;;26.98;13.95;;;17.10;63.40;;;;;;5050296;28;20405;-76
2023/06/24 02:04:31;;;;;;;19.48;14.90;;;17.10;62.20;;;;;;5050754;28;20508;-77
2023/06/24 02:07:04;;;;;;;19.10;14.20;;;17.10;61.80;;;;;;5050457;28;20392;-77
2023/06/24 02:09:32;;;;;;;19.77;13.70;;;17.20;60.30;;;;;;5050915;28;20384;-77
2023/06/24 02:11:59;;;;;;;24.27;13.38;;;17.20;58.90;;;;;;5050794;28;20727;-77
2023/06/24 02:14:27;;;;;;;17.85;13.10;;;17.30;56.80;;;;;;5051802;28;20397;-77
2023/06/24 02:16:57;;;;;;;23.33;12.65;;;17.40;55.30;;;;;;5052400;28;20815;-78
2023/06/24 02:19:29;;;;;;;26.40;13.48;;;17.50;54.00;;;;;;5052129;28;20825;-76
2023/06/24 02:21:56;;;;;;;20.77;13.18;;;17.40;53.90;;;;;;5051408;28;20447;-77
2023/06/24 02:24:22;;;;;;;19.47;12.20;;;17.40;53.60;;;;;;5051220;28;20469;-77
2023/06/24 02:26:49;;;;;;;23.70;13.07;;;17.50;53.50;;;;;;5051045;28;20447;-78
2023/06/24 02:29:16;;;;;;;17.40;12.18;;;17.50;52.80;;;;;;5052142;28;20409;-77
2023/06/24 02:31:41;;;;;;;21.67;12.27;;;17.50;52.50;;;;;;5050855;28;20795;-77
2023/06/24 02:34:07;;;;;;;16.63;12.57;;;17.40;52.20;;;;;;5050449;28;20452;-77
2023/06/24 02:36:33;;;;;;;18.83;12.80;;;17.40;52.20;;;;;;5050122;28;20894;-77
2023/06/24 02:38:58;;;;;;;21.50;12.15;;;17.40;52.10;;;;;;5057441;28;20768;-75
2023/06/24 02:41:24;;;;;;;18.08;12.07;;;17.40;51.90;;;;;;5064364;28;20413;-76
2023/06/24 02:43:49;;;;;;;24.30;12.70;;;17.40;52.00;;;;;;5054755;28;20393;-77
2023/06/24 02:46:16;;;;;;;16.93;11.80;;;17.40;51.30;;;;;;5051988;28;20397;-77
2023/06/24 02:48:45;;;;;;;16.08;11.63;;;17.40;51.00;;;;;;5050518;28;20391;-75
2023/06/24 02:51:11;;;;;;;17.15;12.20;;;17.40;51.30;;;;;;5050602;28;20393;-76
2023/06/24 02:53:37;;;;;;;15.80;11.20;;;17.40;51.30;;;;;;5050436;28;20382;-77
2023/06/24 02:56:05;;;;;;;16.20;11.20;;;17.40;50.90;;;;;;5051161;28;20389;-76
2023/06/24 02:58:31;;;;;;;16.15;11.70;;;17.40;50.80;;;;;;5050313;28;20424;-77
2023/06/24 03:01:02;;;;;;;18.55;11.70;;;17.50;50.20;;;;;;5050323;28;20386;-76
2023/06/24 03:03:28;;;;;;;16.20;11.05;;;17.50;50.00;;;;;;5054516;28;20419;-77
2023/06/24 03:05:56;;;;;;;16.45;10.90;;;17.40;50.10;;;;;;5054474;28;20432;-79
2023/06/24 03:08:24;;;;;;;16.75;11.32;;;17.50;50.10;;;;;;5054325;28;20417;-76
2023/06/24 03:10:56;;;;;;;17.95;12.68;;;17.40;50.30;;;;;;5054317;28;20385;-76
2023/06/24 03:13:22;;;;;;;19.83;11.68;;;17.30;50.80;;;;;;5055573;28;20385;-76
2023/06/24 03:15:48;;;;;;;14.73;11.90;;;17.40;50.20;;;;;;5058217;28;20377;-76
2023/06/24 03:18:13;;;;;;;18.33;11.73;;;17.40;50.30;;;;;;5072673;28;20402;-75
2023/06/24 03:20:39;;;;;;;22.13;12.47;;;17.40;49.80;;;;;;5074299;28;20393;-76
2023/06/24 03:23:06;;;;;;;17.27;11.90;;;17.50;49.50;;;;;;5052984;28;20416;-76
2023/06/24 03:25:32;;;;;;;19.40;12.23;;;17.50;49.40;;;;;;5073551;28;20416;-75
2023/06/24 03:28:00;;;;;;;18.70;11.20;;;17.40;49.60;;;;;;5068486;28;20385;-76
2023/06/24 03:30:26;;;;;;;16.48;11.63;;;17.50;49.50;;;;;;5053362;28;20401;-77
2023/06/24 03:32:52;;;;;;;16.73;11.60;;;17.50;49.30;;;;;;5053553;28;20427;-76
2023/06/24 03:35:18;;;;;;;19.17;12.23;;;17.50;48.80;;;;;;5053402;28;20393;-76
2023/06/24 03:37:44;;;;;;;15.18;11.48;;;17.60;48.40;;;;;;5035650;28;20386;-76
2023/06/24 03:40:10;;;;;;;18.47;12.07;;;17.60;48.20;;;;;;5035289;28;20394;-76
2023/06/24 03:42:36;;;;;;;15.57;11.32;;;17.70;48.10;;;;;;5054033;28;20432;-76
2023/06/24 03:45:05;;;;;;;20.38;12.40;;;17.70;47.90;;;;;;5056493;28;20385;-76
2023/06/24 03:47:31;;;;;;;21.65;12.20;;;17.60;48.60;;;;;;5059064;28;20420;-76
2023/06/24 03:49:56;;;;;;;19.05;11.93;;;17.70;48.00;;;;;;5055991;28;20386;-76
2023/06/24 03:52:22;;;;;;;20.85;11.80;;;17.80;47.60;;;;;;5054390;28;20396;-77
2023/06/24 03:54:48;;;;;;;16.30;11.70;;;17.80;47.70;;;;;;5055415;28;20447;-77
2023/06/24 03:57:13;;;;;;;15.60;12.30;;;17.80;47.10;;;;;;5035986;28;20660;-77
2023/06/24 03:59:39;;;;;;;21.13;11.73;;;17.90;46.90;;;;;;5055399;28;20889;-77
2023/06/24 04:02:08;;;;;;;16.90;11.40;;;17.80;47.10;;;;;;5052437;28;20401;-77
2023/06/24 04:04:35;;;;;;;13.85;11.63;;;17.80;47.20;;;;;;5052636;28;20388;-77
2023/06/24 04:07:00;;;;;;;17.95;12.20;;;17.90;47.30;;;;;;5052626;28;20381;-77
2023/06/24 04:09:26;;;;;;;19.92;13.32;;;18.00;46.90;;;;;;5052752;28;20459;-77
2023/06/24 04:11:51;;;;;;;17.47;12.33;;;18.00;46.70;;;;;;5052251;28;20399;-76
2023/06/24 04:14:17;;;;;;;16.75;12.05;;;18.10;47.00;;;;;;5051679;28;20393;-76
2023/06/24 04:16:42;;;;;;;17.23;13.05;;;18.10;46.00;;;;;;5052387;28;20420;-76
2023/06/24 04:19:08;;;;;;;22.70;13.47;;;18.00;46.80;;;;;;5052099;28;20494;-75
2023/06/24 04:21:34;;;;;;;16.53;11.83;;;18.10;46.00;;;;;;5052132;28;20416;-76
2023/06/24 04:23:59;;;;;;;19.70;12.70;;;18.10;46.50;;;;;;5052325;28;20385;-76
2023/06/24 04:26:25;;;;;;;17.80;12.43;;;18.00;46.90;;;;;;5052378;28;20385;-75
2023/06/24 04:28:50;;;;;;;17.07;11.90;;;18.10;47.20;;;;;;5052244;28;20386;-75
2023/06/24 04:31:16;;;;;;;23.55;13.13;;;18.10;47.20;;;;;;5055713;28;20392;-75
2023/06/24 04:33:42;;;;;;;18.15;13.60;;;18.10;47.40;;;;;;5055316;28;20409;-75
2023/06/24 04:36:07;;;;;;;20.85;13.25;;;18.10;47.60;;;;;;5054420;28;20388;-76
2023/06/24 04:38:33;;;;;;;20.83;13.87;;;18.10;47.90;;;;;;5058365;28;20517;-74
2023/06/24 04:40:59;;;;;;;18.08;12.27;;;18.00;48.00;;;;;;5075130;28;20404;-76
2023/06/24 04:43:27;;;;;;;21.77;13.52;;;18.20;47.20;;;;;;5066275;28;20401;-78
2023/06/24 04:45:54;;;;;;;17.95;12.80;;;18.30;46.80;;;;;;5052672;28;20397;-77
2023/06/24 04:48:20;;;;;;;19.85;13.57;;;18.50;45.70;;;;;;5052605;28;20472;-76
2023/06/24 04:50:46;;;;;;;18.42;13.48;;;18.40;46.10;;;;;;5052134;28;20473;-76
2023/06/24 04:53:12;;;;;;;18.27;13.05;;;18.30;46.90;;;;;;5034530;28;20396;-77
2023/06/24 04:55:38;;;;;;;20.35;13.13;;;18.50;45.80;;;;;;5051952;28;20396;-76
2023/06/24 04:58:03;;;;;;;20.95;13.25;;;18.60;45.00;;;;;;5051540;28;20533;-76
2023/06/24 05:00:29;;;;;;;19.65;13.20;;;18.60;45.20;;;;;;5051713;28;20929;-75
2023/06/24 05:02:55;;;;;;;22.93;14.40;;;18.60;45.80;;;;;;5051404;28;20901;-76
2023/06/24 05:05:20;;;;;;;18.45;13.35;;;18.50;45.80;;;;;;5052117;28;20904;-76
2023/06/24 05:07:46;;;;;;;17.23;13.40;;;18.70;45.10;;;;;;5051932;28;20881;-77
2023/06/24 05:10:11;;;;;;;18.73;14.20;;;18.80;44.60;;;;;;5051506;28;20390;-76
2023/06/24 05:12:37;;;;;;;26.83;14.77;;;18.80;44.80;;;;;;5033668;28;20400;-76
2023/06/24 05:15:03;;;;;;;22.27;14.82;;;18.70;45.00;;;;;;5051881;28;20416;-76
2023/06/24 05:17:28;;;;;;;22.60;14.80;;;18.80;44.90;;;;;;5051489;28;20459;-77
2023/06/24 05:19:54;;;;;;;19.73;14.53;;;18.90;44.60;;;;;;5052164;28;20881;-78
2023/06/24 05:22:19;;;;;;;21.40;14.85;;;18.80;44.90;;;;;;5051775;28;20412;-78
2023/06/24 05:24:45;;;;;;;22.93;15.00;;;18.90;44.90;;;;;;5051277;28;20381;-77
2023/06/24 05:27:10;;;;;;;27.07;15.10;;;18.90;45.10;;;;;;5034986;28;20453;-77
2023/06/24 05:29:36;;;;;;;22.10;16.33;;;19.20;44.70;;;;;;5051957;28;20382;-77
2023/06/24 05:32:03;;;;;;;20.97;15.30;;;19.30;43.90;;;;;;5051534;28;20412;-77
2023/06/24 05:34:30;;;;;;;22.87;16.63;;;19.50;42.90;;;;;;5034228;28;20411;-77
2023/06/24 05:36:56;;;;;;;22.60;15.20;;;19.50;42.70;;;;;;5051659;28;20450;-75
2023/06/24 05:39:21;;;;;;;22.17;16.07;;;19.50;42.80;;;;;;5053635;28;20468;-78
2023/06/24 05:41:48;;;;;;;20.65;15.63;;;19.60;42.30;;;;;;5054544;28;20458;-78
2023/06/24 05:44:14;;;;;;;20.60;15.07;;;19.90;41.40;;;;;;5057350;28;20409;-78
2023/06/24 05:46:40;;;;;;;22.00;16.10;;;20.10;40.00;;;;;;5057175;28;20369;-77
2023/06/24 05:49:05;;;;;;;21.67;15.93;;;19.90;41.30;;;;;;5055543;28;20475;-77
2023/06/24 05:51:31;;;;;;;23.23;14.90;;;20.00;40.70;;;;;;5054369;28;20457;-78
2023/06/24 05:53:57;;;;;;;23.88;14.43;;;20.10;40.60;;;;;;5057705;28;20420;-79
2023/06/24 05:56:23;;;;;;;22.85;14.90;;;20.20;39.70;;;;;;5062301;28;20389;-77
2023/06/24 05:58:48;;;;;;;20.90;14.50;;;20.20;40.10;;;;;;5064946;28;20408;-77
2023/06/24 06:01:14;;;;;;;25.73;15.83;;;20.20;40.50;;;;;;5044915;28;20393;-77
2023/06/24 06:03:40;;;;;;;18.70;14.23;;;20.40;40.00;;;;;;5062397;28;20460;-77
2023/06/24 06:06:06;;;;;;;22.92;15.35;;;20.40;40.10;;;;;;5061170;28;20396;-78
2023/06/24 06:08:32;;;;;;;24.63;15.77;;;20.40;39.90;;;;;;5056248;28;20378;-75
2023/06/24 06:10:58;;;;;;;21.10;15.40;;;20.50;39.20;;;;;;5056018;28;20921;-80
2023/06/24 06:13:24;;;;;;;25.50;16.13;;;20.70;39.00;;;;;;5037915;28;20488;-77
2023/06/24 06:15:50;;;;;;;20.80;14.37;;;20.80;38.60;;;;;;5037401;28;20419;-79
2023/06/24 06:18:15;;;;;;;26.65;15.05;;;20.90;38.40;;;;;;5057313;28;20397;-77
2023/06/24 06:20:41;;;;;;;31.50;17.60;;;21.00;38.30;;;;;;5056538;28;20392;-79
2023/06/24 06:23:07;;;;;;;22.98;15.30;;;20.90;38.30;;;;;;5038503;28;20864;-79
2023/06/24 06:25:32;;;;;;;27.42;19.55;;;20.90;39.30;;;;;;5055725;28;20381;-78
2023/06/24 06:27:58;;;;;;;26.47;18.90;;;20.90;39.30;;;;;;5057636;28;20750;-79
2023/06/24 06:30:24;;;;;;;28.63;19.05;;;20.90;39.80;;;;;;5057659;28;20419;-80
2023/06/24 06:32:49;;;;;;;31.38;21.23;;;21.10;40.10;;;;;;5037926;28;20404;-77
2023/06/24 06:35:15;;;;;;;32.43;21.13;;;21.50;38.20;;;;;;5055907;28;20385;-78
2023/06/24 06:37:40;;;;;;;33.83;21.55;;;21.90;36.80;;;;;;5040795;28;20459;-78
2023/06/24 06:40:06;;;;;;;31.30;20.90;;;22.40;35.00;;;;;;5059977;28;20388;-77
2023/06/24 06:42:32;;;;;;;35.63;21.95;;;22.50;34.40;;;;;;5045787;28;20409;-76
2023/06/24 06:44:58;;;;;;;31.33;21.10;;;22.70;33.60;;;;;;5061924;28;20400;-78
2023/06/24 06:47:23;;;;;;;36.65;22.55;;;22.60;33.50;;;;;;5059379;28;20382;-78
2023/06/24 06:49:49;;;;;;;32.63;21.70;;;22.40;34.60;;;;;;5043684;28;20464;-78
2023/06/24 06:52:14;;;;;;;37.70;24.08;;;22.30;34.30;;;;;;5063008;28;20407;-79
2023/06/24 06:54:40;;;;;;;27.40;21.03;;;22.10;34.90;;;;;;5062184;28;20567;-77
2023/06/24 06:57:06;;;;;;;34.20;22.27;;;22.10;35.00;;;;;;5060891;28;20452;-78
2023/06/24 06:59:31;;;;;;;32.70;20.33;;;22.10;35.10;;;;;;5062014;28;20378;-82
2023/06/24 07:01:57;;;;;;;32.60;21.90;;;22.20;34.40;;;;;;5064882;28;20405;-78
2023/06/24 07:04:23;;;;;;;35.38;22.63;;;22.30;34.30;;;;;;5063070;28;20904;-79
2023/06/24 07:06:49;;;;;;;36.10;21.23;;;22.30;33.60;;;;;;5066681;28;20373;-79
2023/06/24 07:09:15;;;;;;;27.30;20.52;;;22.40;33.90;;;;;;5058149;28;20389;-78
2023/06/24 07:11:41;;;;;;;31.13;20.63;;;22.40;33.30;;;;;;5054249;28;20447;-79
2023/06/24 07:14:07;;;;;;;30.73;20.45;;;22.50;33.50;;;;;;5059318;28;20389;-78
2023/06/24 07:16:32;;;;;;;31.45;20.13;;;22.90;32.00;;;;;;5060956;28;20480;-79
2023/06/24 07:18:58;;;;;;;26.80;19.10;;;22.80;31.50;;;;;;5060413;28;20719;-79
2023/06/24 07:21:24;;;;;;;25.33;16.60;;;23.00;30.50;;;;;;5063223;28;20783;-79
2023/06/24 07:23:49;;;;;;;25.23;17.00;;;23.10;28.30;;;;;;5058322;28;20382;-78
2023/06/24 07:26:15;;;;;;;26.17;16.85;;;23.10;28.50;;;;;;5058478;28;20394;-79
2023/06/24 07:28:40;;;;;;;20.23;13.50;;;23.10;28.50;;;;;;5039794;28;20389;-78
2023/06/24 07:31:06;;;;;;;21.48;12.65;;;23.10;27.00;;;;;;5042213;28;20451;-80
2023/06/24 07:33:31;;;;;;;21.97;14.60;;;23.20;25.80;;;;;;5061432;28;20731;-77
2023/06/24 07:35:57;;;;;;;25.52;14.70;;;23.50;26.00;;;;;;5058121;28;20385;-77
2023/06/24 07:38:23;;;;;;;20.30;13.90;;;23.50;25.80;;;;;;5058631;28;20789;-78
2023/06/24 07:40:48;;;;;;;24.80;14.13;;;23.70;24.70;;;;;;5058073;28;20419;-79
2023/06/24 07:43:14;;;;;;;17.77;12.00;;;24.00;23.80;;;;;;5060903;28;20405;-78
2023/06/24 07:45:40;;;;;;;20.42;12.20;;;24.10;22.40;;;;;;5065377;28;20378;-78
2023/06/24 07:48:07;;;;;;;22.20;12.70;;;24.00;22.40;;;;;;5039579;28;20402;-78
2023/06/24 07:50:33;;;;;;;15.40;11.33;;;24.20;22.50;;;;;;5052654;28;20409;-78
2023/06/24 07:52:59;;;;;;;16.52;11.23;;;24.10;22.00;;;;;;5058062;28;20767;-77
2023/06/24 07:55:25;;;;;;;18.75;11.45;;;23.70;22.80;;;;;;5054192;28;20401;-77
2023/06/24 07:57:50;;;;;;;14.63;11.20;;;23.60;23.10;;;;;;5057253;28;20409;-78
2023/06/24 08:00:16;;;;;;;13.93;10.27;;;23.50;22.90;;;;;;5061038;28;20489;-77
2023/06/24 08:02:42;;;;;;;14.30;9.60;;;23.50;22.80;;;;;;5021227;28;20427;-77
2023/06/24 08:05:11;;;;;;;11.43;8.50;;;23.80;20.70;;;;;;5053795;28;20754;-77
2023/06/24 08:07:37;;;;;;;10.88;7.35;;;23.80;20.00;;;;;;5053160;28;20468;-78
2023/06/24 08:10:04;;;;;;;10.57;7.80;;;23.70;19.30;;;;;;5049537;28;20487;-78
2023/06/24 08:12:29;;;;;;;12.80;8.40;;;23.50;19.40;;;;;;5057384;28;20512;-77
2023/06/24 08:14:55;;;;;;;9.63;7.40;;;23.40;19.10;;;;;;5054777;28;20393;-76
2023/06/24 08:17:20;;;;;;;10.40;7.20;;;23.40;18.80;;;;;;5048798;28;20398;-77
2023/06/24 08:19:46;;;;;;;10.30;7.63;;;23.40;19.00;;;;;;5039983;28;20521;-76
2023/06/24 08:22:11;;;;;;;11.63;7.70;;;23.50;19.10;;;;;;5014869;28;20433;-75
2023/06/24 08:24:37;;;;;;;12.03;7.40;;;23.60;19.90;;;;;;5040774;28;20396;-76
2023/06/24 08:27:03;;;;;;;12.47;8.20;;;23.60;20.00;;;;;;5052622;28;20381;-74
2023/06/24 08:29:28;;;;;;;12.45;8.18;;;23.50;20.50;;;;;;5052811;28;20443;-75
2023/06/24 08:31:54;;;;;;;14.70;9.10;;;23.50;20.50;;;;;;5052796;28;20384;-77
2023/06/24 08:34:19;;;;;;;13.93;9.27;;;23.60;21.10;;;;;;5051981;28;20413;-77
2023/06/24 08:36:45;;;;;;;14.50;9.93;;;23.60;20.40;;;;;;5053357;28;20485;-76
2023/06/24 08:39:10;;;;;;;16.83;9.98;;;23.60;20.70;;;;;;5053227;28;20889;-77
2023/06/24 08:41:36;;;;;;;15.83;10.00;;;23.60;20.70;;;;;;5054846;28;20719;-78
2023/06/24 08:44:02;;;;;;;15.53;9.80;;;23.60;20.90;;;;;;5056975;28;20421;-76
2023/06/24 08:46:30;;;;;;;13.75;9.48;;;23.80;20.90;;;;;;5035095;28;20528;-77
2023/06/24 08:49:20;;;;;;;13.40;8.90;;;23.90;20.80;;;;;;5052734;28;20425;-77
2023/06/24 08:51:49;;;;;;;13.20;8.15;;;24.00;20.40;;;;;;5053272;28;20477;-77
2023/06/24 08:54:15;;;;;;;12.00;8.80;;;24.00;20.80;;;;;;5035212;28;20447;-76
2023/06/24 08:56:41;;;;;;;16.30;9.15;;;24.10;20.30;;;;;;5052855;28;20384;-77
2023/06/24 08:59:08;;;;;;;13.45;9.50;;;24.40;20.00;;;;;;5053077;28;20496;-75
2023/06/24 09:01:34;;;;;;;12.00;8.80;;;24.50;19.60;;;;;;5053701;28;20417;-77
2023/06/24 09:04:00;;;;;;;16.13;9.20;;;24.60;19.50;;;;;;5052703;28;20389;-76
2023/06/24 09:06:27;;;;;;;17.58;9.80;;;24.60;19.80;;;;;;5047700;28;20827;-77
2023/06/24 09:08:56;;;;;;;16.30;9.87;;;24.60;19.50;;;;;;5034258;28;20387;-76
2023/06/24 09:11:27;;;;;;;13.48;9.20;;;24.70;19.30;;;;;;5050536;28;20479;-77
2023/06/24 09:13:59;;;;;;;15.15;10.05;;;24.90;19.20;;;;;;5023308;28;20886;-78
2023/06/24 09:16:26;;;;;;;13.60;10.60;;;24.70;19.30;;;;;;5045215;28;20427;-78
2023/06/24 09:18:53;;;;;;;15.65;9.68;;;24.70;19.60;;;;;;5050772;28;20468;-78
2023/06/24 09:21:26;;;;;;;14.40;8.63;;;24.90;19.70;;;;;;5046430;28;20394;-77
2023/06/24 09:23:56;;;;;;;16.50;10.05;;;25.00;19.60;;;;;;5042340;28;20398;-77
2023/06/24 09:26:25;;;;;;;18.23;10.10;;;25.10;19.00;;;;;;5036309;28;20385;-80
2023/06/24 09:28:51;;;;;;;12.70;9.30;;;25.10;18.50;;;;;;5041150;28;20375;-77
2023/06/24 09:31:17;;;;;;;12.13;8.80;;;25.10;18.70;;;;;;5042783;28;20884;-77
2023/06/24 09:33:43;;;;;;;13.80;10.13;;;25.10;18.40;;;;;;5043392;28;20883;-78
2023/06/24 09:36:14;;;;;;;11.48;7.60;;;25.10;19.00;;;;;;5061312;28;20427;-77
2023/06/24 09:38:41;;;;;;;10.52;6.20;;;25.40;16.50;;;;;;5047307;28;20453;-77
2023/06/24 09:41:08;;;;;;;13.10;7.00;;;25.50;16.40;;;;;;5064140;28;20485;-77
2023/06/24 09:43:39;;;;;;;9.10;6.47;;;25.60;15.20;;;;;;5031172;28;20407;-78
2023/06/24 09:46:05;;;;;;;11.70;6.50;;;25.60;13.60;;;;;;5041810;28;20387;-77
2023/06/24 09:48:32;;;;;;;11.05;8.40;;;25.40;14.80;;;;;;5022968;28;20397;-77
2023/06/24 09:51:03;;;;;;;11.20;8.35;;;25.20;16.70;;;;;;5058369;28;20495;-78
2023/06/24 09:53:34;;;;;;;16.20;9.17;;;25.20;17.50;;;;;;5041292;28;20404;-77
2023/06/24 09:56:03;;;;;;;13.65;8.93;;;25.20;18.00;;;;;;5056563;28;20428;-77
2023/06/24 09:58:35;;;;;;;16.30;8.50;;;25.40;17.60;;;;;;5054422;28;20377;-76
2023/06/24 10:01:03;;;;;;;10.63;7.00;;;25.40;17.50;;;;;;5054330;28;20727;-77
2023/06/24 10:03:31;;;;;;;15.57;7.20;;;25.40;16.20;;;;;;5056773;28;20401;-79
2023/06/24 10:05:57;;;;;;;13.27;7.80;;;25.60;15.20;;;;;;5039602;28;20408;-77
2023/06/24 10:08:23;;;;;;;13.20;8.35;;;25.80;14.40;;;;;;5039848;28;20878;-78
2023/06/24 10:10:49;;;;;;;13.33;7.83;;;25.70;16.10;;;;;;5056813;28;20450;-78
2023/06/24 10:13:14;;;;;;;12.90;9.25;;;25.80;16.30;;;;;;5039785;28;20858;-77
2023/06/24 10:15:40;;;;;;;14.63;8.30;;;25.70;15.80;;;;;;5062613;28;20400;-80
2023/06/24 10:18:31;;;;;;;14.88;8.13;;;25.60;16.00;;;;;;5059276;28;20532;-79
2023/06/24 10:20:58;;;;;;;10.35;6.97;;;26.00;16.20;;;;;;5055131;28;20409;-78
2023/06/24 10:23:30;;;;;;;11.77;6.78;;;26.10;13.60;;;;;;5056260;28;20420;-79
2023/06/24 10:25:56;;;;;;;16.20;9.15;;;26.20;13.90;;;;;;5052011;28;20406;-79
2023/06/24 10:28:21;;;;;;;12.97;8.83;;;26.50;15.80;;;;;;5050164;28;20797;-79
2023/06/24 10:30:56;;;;;;;13.90;7.57;;;26.30;15.10;;;;;;5057247;28;20786;-78
2023/06/24 10:33:25;;;;;;;12.38;7.68;;;26.40;14.80;;;;;;5056952;28;20393;-79
2023/06/24 10:35:51;;;;;;;9.73;6.13;;;26.40;13.20;;;;;;5038625;28;20389;-77
2023/06/24 10:38:17;;;;;;;13.25;7.50;;;26.50;12.50;;;;;;5051246;28;20830;-75
2023/06/24 10:40:43;;;;;;;10.50;7.00;;;26.60;12.30;;;;;;5050569;28;20393;-75
2023/06/24 10:43:24;;;;;;;11.50;7.38;;;26.40;13.10;;;;;;5051274;28;20405;-74
2023/06/24 10:45:51;;;;;;;11.90;6.68;;;26.30;12.30;;;;;;5041935;28;20399;-76
2023/06/24 10:48:20;;;;;;;9.73;7.05;;;26.30;12.00;;;;;;5031024;28;20382;-76
2023/06/24 10:50:47;;;;;;;7.97;5.82;;;26.30;12.40;;;;;;5041392;28;20739;-75
2023/06/24 10:53:14;;;;;;;11.60;6.00;;;26.20;9.70;;;;;;5030914;28;20380;-76
2023/06/24 10:55:39;;;;;;;11.48;6.30;;;26.30;11.30;;;;;;5031381;28;20406;-74
2023/06/24 10:58:12;;;;;;;10.60;5.47;;;26.30;10.10;;;;;;5030819;28;20875;-77
2023/06/24 11:00:39;;;;;;;9.05;4.97;;;26.40;8.30;;;;;;5029094;28;20390;-77
2023/06/24 11:03:11;;;;;;;9.95;6.32;;;26.60;9.10;;;;;;5028561;28;20403;-74
2023/06/24 11:05:41;;;;;;;9.00;6.70;;;26.60;9.90;;;;;;5028936;28;20386;-75
2023/06/24 11:08:08;;;;;;;10.95;7.20;;;26.50;10.40;;;;;;5028567;28;20379;-76
2023/06/24 11:10:41;;;;;;;8.02;6.60;;;26.60;11.60;;;;;;5028395;28;20403;-75
2023/06/24 11:13:06;;;;;;;8.18;5.20;;;26.70;9.90;;;;;;5028667;28;20383;-77
2023/06/24 11:15:33;;;;;;;9.43;5.47;;;26.60;8.10;;;;;;5032937;28;20414;-76
2023/06/24 11:18:01;;;;;;;7.60;5.50;;;26.70;8.50;;;;;;5013594;28;20433;-76
2023/06/24 11:20:27;;;;;;;8.75;5.00;;;26.60;8.20;;;;;;5031871;28;20486;-77
2023/06/24 11:22:53;;;;;;;8.43;5.40;;;26.70;7.20;;;;;;5034642;28;20399;-76
2023/06/24 11:25:21;;;;;;;6.63;5.55;;;26.90;7.30;;;;;;5035599;28;20387;-76
2023/06/24 11:27:47;;;;;;;10.55;6.45;;;27.10;9.80;;;;;;5033731;28;20389;-75
2023/06/24 11:30:13;;;;;;;11.15;6.03;;;27.10;10.60;;;;;;5016202;28;20943;-77
2023/06/24 11:32:41;;;;;;;11.20;6.78;;;27.30;10.90;;;;;;5034060;28;20894;-75
2023/06/24 11:35:09;;;;;;;8.10;6.50;;;27.30;10.30;;;;;;5016763;28;20459;-77
2023/06/24 11:37:34;;;;;;;8.68;5.63;;;27.20;9.30;;;;;;5034005;28;20954;-75
2023/06/24 11:40:06;;;;;;;13.15;6.25;;;27.10;9.30;;;;;;5035135;28;20391;-76
2023/06/24 11:42:32;;;;;;;9.18;6.10;;;27.00;9.80;;;;;;5033828;28;20395;-75
2023/06/24 11:45:07;;;;;;;8.13;4.80;;;27.00;11.00;;;;;;5034055;28;20747;-76
2023/06/24 11:47:36;;;;;;;6.90;4.43;;;27.30;7.30;;;;;;5034281;28;20466;-75
2023/06/24 11:50:04;;;;;;;8.68;4.97;;;27.60;7.10;;;;;;5033802;28;20380;-77
2023/06/24 11:52:36;;;;;;;11.30;6.40;;;28.00;9.20;;;;;;5033608;28;20914;-76
2023/06/24 11:55:02;;;;;;;7.57;5.07;;;27.90;9.50;;;;;;5033529;28;20794;-74
2023/06/24 11:57:53;;;;;;;10.35;5.30;;;28.00;10.00;;;;;;5033552;28;20729;-76
2023/06/24 12:00:27;;;;;;;12.82;5.80;;;28.20;8.40;;;;;;5033716;28;20896;-76
2023/06/24 12:02:54;;;;;;;7.30;5.55;;;28.00;8.40;;;;;;5033600;28;20403;-74
2023/06/24 12:05:26;;;;;;;7.60;4.88;;;27.90;8.10;;;;;;5033434;28;20819;-75
2023/06/24 12:07:55;;;;;;;7.00;4.50;;;27.90;6.60;;;;;;5033845;28;20748;-75
2023/06/24 12:10:21;;;;;;;6.85;4.05;;;28.00;5.20;;;;;;5037048;28;20383;-75
2023/06/24 12:12:47;;;;;;;4.60;3.78;;;28.10;4.40;;;;;;5037817;28;20402;-75
2023/06/24 12:15:12;;;;;;;4.97;4.00;;;28.20;3.70;;;;;;5037223;28;20387;-75
2023/06/24 12:17:38;;;;;;;8.10;5.17;;;28.10;4.90;;;;;;5033898;28;20397;-75
2023/06/24 12:20:04;;;;;;;8.80;5.47;;;28.20;7.80;;;;;;5036345;28;20395;-75
2023/06/24 12:22:29;;;;;;;6.45;5.10;;;28.20;9.40;;;;;;5032823;28;20407;-76
2023/06/24 12:24:55;;;;;;;6.47;5.10;;;28.40;8.90;;;;;;5033140;28;20383;-76
2023/06/24 12:27:21;;;;;;;9.00;4.80;;;28.40;6.60;;;;;;5033985;28;20792;-76
2023/06/24 12:29:47;;;;;;;5.57;4.30;;;28.40;5.60;;;;;;5033464;28;20391;-75
2023/06/24 12:32:12;;;;;;;5.75;4.30;;;28.40;5.80;;;;;;5032877;28;20383;-76
2023/06/24 12:34:38;;;;;;;5.13;4.03;;;28.50;4.50;;;;;;5033143;28;20391;-76